Time;durP1;ratioP1;P1;durP2;ratioP2;P2;SDS_P1;SDS_P2;PMS_P1;PMS_P2;Temp;Humidity;BMP_temperature;BMP_pressure;BME280_temperature;BME280_humidity;BME280_pressure;Samples;Min_cycle;Max_cycle;Signal;HPM_P1;HPM_P2
2022/07/13 00:00:46;;;;;;;27.75;16.23;;;;;;;;;;6071473;23;20051;-83
2022/07/13 00:03:14;;;;;;;26.10;15.50;;;;;;;;;;6071483;23;20027;-83
2022/07/13 00:05:44;;;;;;;24.67;15.82;;;;;;;;;;6070128;23;20877;-83
2022/07/13 00:08:11;;;;;;;31.52;17.08;;;;;;;;;;6071910;23;20023;-83
2022/07/13 00:10:38;;;;;;;26.92;16.55;;;;;;;;;;6071900;23;20020;-84
2022/07/13 00:13:05;;;;;;;26.27;16.40;;;;;;;;;;6071435;23;20023;-83
2022/07/13 00:15:33;;;;;;;27.48;16.27;;;;;;;;;;6072125;23;20024;-83
2022/07/13 00:18:00;;;;;;;25.15;15.00;;;;;;;;;;6071861;23;20130;-83
2022/07/13 00:20:27;;;;;;;20.35;13.30;;;;;;;;;;6072715;23;20059;-83
2022/07/13 00:22:55;;;;;;;24.48;16.08;;;;;;;;;;6072326;23;20027;-84
2022/07/13 00:25:23;;;;;;;24.83;16.17;;;;;;;;;;6071577;23;20028;-83
2022/07/13 00:27:50;;;;;;;23.58;15.98;;;;;;;;;;6071756;23;20777;-83
2022/07/13 00:30:17;;;;;;;27.40;17.05;;;;;;;;;;6072426;23;20035;-83
2022/07/13 00:32:44;;;;;;;25.58;16.42;;;;;;;;;;6072024;23;20020;-84
2022/07/13 00:35:11;;;;;;;23.30;15.70;;;;;;;;;;6071594;23;20766;-83
2022/07/13 00:37:39;;;;;;;24.52;15.75;;;;;;;;;;6072085;23;20103;-82
2022/07/13 00:40:06;;;;;;;25.80;15.70;;;;;;;;;;6072256;23;20038;-83
2022/07/13 00:42:33;;;;;;;21.55;15.40;;;;;;;;;;6072460;23;20027;-83
2022/07/13 00:45:00;;;;;;;25.83;15.82;;;;;;;;;;6072255;23;20019;-84
2022/07/13 00:47:33;;;;;;;24.95;15.38;;;;;;;;;;6070963;23;20908;-83
2022/07/13 00:50:06;;;;;;;22.65;14.27;;;;;;;;;;6071099;23;20693;-83
2022/07/13 00:52:36;;;;;;;20.30;13.82;;;;;;;;;;6071473;23;20048;-83
2022/07/13 00:55:04;;;;;;;15.60;12.02;;;;;;;;;;6070519;23;20045;-83
2022/07/13 00:57:33;;;;;;;26.75;15.77;;;;;;;;;;6070476;23;20126;-83
2022/07/13 01:00:00;;;;;;;26.73;13.90;;;;;;;;;;6069941;23;20034;-83
2022/07/13 01:02:28;;;;;;;21.90;14.80;;;;;;;;;;6069828;23;20111;-82
2022/07/13 01:04:57;;;;;;;19.45;13.65;;;;;;;;;;6070745;23;20027;-83
2022/07/13 01:07:25;;;;;;;23.20;15.15;;;;;;;;;;6045694;23;20820;-82
2022/07/13 01:09:52;;;;;;;25.35;14.65;;;;;;;;;;6070905;23;20027;-82
2022/07/13 01:12:19;;;;;;;19.23;13.40;;;;;;;;;;6070754;23;20023;-83
2022/07/13 01:14:46;;;;;;;21.95;12.75;;;;;;;;;;6071170;23;20024;-82
2022/07/13 01:17:13;;;;;;;19.60;13.05;;;;;;;;;;6069571;23;20094;-82
2022/07/13 01:19:42;;;;;;;18.88;12.55;;;;;;;;;;6045702;23;20022;-83
2022/07/13 01:22:11;;;;;;;17.90;12.05;;;;;;;;;;6071031;23;20953;-82
2022/07/13 01:24:38;;;;;;;19.83;13.43;;;;;;;;;;6045878;23;20063;-82
2022/07/13 01:27:05;;;;;;;18.70;11.98;;;;;;;;;;6046798;23;20106;-82
2022/07/13 01:29:32;;;;;;;20.02;14.27;;;;;;;;;;6071844;23;20037;-82
2022/07/13 01:32:02;;;;;;;19.65;13.77;;;;;;;;;;6071750;23;20027;-82
2022/07/13 01:34:29;;;;;;;19.42;13.95;;;;;;;;;;6071400;23;20072;-83
2022/07/13 01:36:57;;;;;;;19.83;13.25;;;;;;;;;;6070195;23;20061;-83
2022/07/13 01:39:25;;;;;;;18.63;13.07;;;;;;;;;;6046184;23;20082;-83
2022/07/13 01:41:52;;;;;;;18.55;12.57;;;;;;;;;;6071521;23;20816;-82
2022/07/13 01:44:19;;;;;;;17.90;12.95;;;;;;;;;;6071698;23;20095;-83
2022/07/13 01:46:46;;;;;;;20.60;13.55;;;;;;;;;;6071754;23;20110;-83
2022/07/13 01:49:13;;;;;;;18.40;13.40;;;;;;;;;;6072075;23;20031;-82
2022/07/13 01:51:41;;;;;;;19.80;13.52;;;;;;;;;;6071189;23;20024;-82
2022/07/13 01:54:08;;;;;;;19.27;14.38;;;;;;;;;;6071887;23;20062;-82
2022/07/13 01:56:35;;;;;;;19.00;13.63;;;;;;;;;;6072375;23;20027;-82
2022/07/13 01:59:03;;;;;;;22.17;15.52;;;;;;;;;;6071308;23;20062;-82
2022/07/13 02:01:30;;;;;;;22.92;14.57;;;;;;;;;;6070998;23;20749;-83
2022/07/13 02:03:57;;;;;;;19.20;13.88;;;;;;;;;;6071844;23;20019;-83
2022/07/13 02:06:25;;;;;;;17.73;13.57;;;;;;;;;;6072251;23;20062;-82
2022/07/13 02:08:53;;;;;;;19.30;13.88;;;;;;;;;;6072943;23;20027;-82
2022/07/13 02:11:20;;;;;;;18.40;13.98;;;;;;;;;;6072414;23;20830;-82
2022/07/13 02:13:47;;;;;;;20.85;13.50;;;;;;;;;;6072360;23;20484;-82
2022/07/13 02:16:15;;;;;;;17.65;13.07;;;;;;;;;;6072498;23;20065;-82
2022/07/13 02:18:42;;;;;;;23.13;13.10;;;;;;;;;;6071898;23;20042;-83
2022/07/13 02:21:12;;;;;;;20.20;14.50;;;;;;;;;;6072736;23;20767;-83
2022/07/13 02:23:40;;;;;;;22.05;15.10;;;;;;;;;;6072676;23;20821;-82
2022/07/13 02:26:07;;;;;;;17.95;13.65;;;;;;;;;;6073048;23;20844;-82
2022/07/13 02:28:34;;;;;;;19.63;12.70;;;;;;;;;;6046009;23;20043;-82
2022/07/13 02:31:04;;;;;;;19.08;12.68;;;;;;;;;;6073501;23;20015;-82
2022/07/13 02:33:31;;;;;;;20.42;14.02;;;;;;;;;;6073025;23;20058;-83
2022/07/13 02:35:58;;;;;;;23.17;13.30;;;;;;;;;;6073048;23;20050;-82
2022/07/13 02:38:25;;;;;;;19.35;12.75;;;;;;;;;;6073522;23;20018;-82
2022/07/13 02:40:54;;;;;;;17.88;13.23;;;;;;;;;;6074441;23;20023;-83
2022/07/13 02:43:21;;;;;;;19.80;12.95;;;;;;;;;;6072309;23;20070;-82
2022/07/13 02:45:48;;;;;;;16.50;12.93;;;;;;;;;;6074001;23;20107;-82
2022/07/13 02:48:15;;;;;;;18.33;13.05;;;;;;;;;;6076547;23;20068;-82
2022/07/13 02:50:43;;;;;;;23.42;14.35;;;;;;;;;;6076648;23;20024;-82
2022/07/13 02:53:10;;;;;;;17.98;14.05;;;;;;;;;;6075473;23;20047;-82
2022/07/13 02:55:37;;;;;;;21.88;13.63;;;;;;;;;;6075950;23;20027;-82
2022/07/13 02:58:04;;;;;;;25.60;12.82;;;;;;;;;;6075351;23;20027;-82
2022/07/13 03:00:32;;;;;;;19.00;13.70;;;;;;;;;;6075086;23;20107;-82
2022/07/13 03:02:59;;;;;;;18.35;14.25;;;;;;;;;;6075981;23;20293;-82
2022/07/13 03:05:26;;;;;;;28.35;14.27;;;;;;;;;;6076049;23;20036;-82
2022/07/13 03:07:53;;;;;;;17.23;13.45;;;;;;;;;;6076307;23;20829;-82
2022/07/13 03:10:20;;;;;;;18.13;14.20;;;;;;;;;;6075330;23;20029;-82
2022/07/13 03:12:47;;;;;;;17.88;13.52;;;;;;;;;;6075370;23;20115;-82
2022/07/13 03:15:14;;;;;;;21.58;13.57;;;;;;;;;;6075665;23;20044;-83
2022/07/13 03:17:42;;;;;;;22.77;14.95;;;;;;;;;;6075156;23;20027;-83
2022/07/13 03:20:09;;;;;;;18.30;14.80;;;;;;;;;;6075302;23;20038;-84
2022/07/13 03:22:39;;;;;;;23.92;13.77;;;;;;;;;;6077110;23;20031;-82
2022/07/13 03:25:06;;;;;;;19.20;14.05;;;;;;;;;;6075583;23;20031;-82
2022/07/13 03:27:33;;;;;;;19.88;14.15;;;;;;;;;;6077314;23;20123;-83
2022/07/13 03:30:01;;;;;;;17.17;13.25;;;;;;;;;;6076479;23;20960;-81
2022/07/13 03:32:28;;;;;;;21.48;14.10;;;;;;;;;;6077743;23;20521;-82
2022/07/13 03:34:55;;;;;;;20.67;14.23;;;;;;;;;;6077521;23;20078;-81
2022/07/13 03:37:22;;;;;;;20.15;13.77;;;;;;;;;;6051201;23;20015;-81
2022/07/13 03:39:49;;;;;;;22.30;15.20;;;;;;;;;;6076469;23;20094;-82
2022/07/13 03:42:16;;;;;;;19.52;13.73;;;;;;;;;;6075660;23;20090;-82
2022/07/13 03:44:44;;;;;;;20.00;15.02;;;;;;;;;;6050312;23;20026;-81
2022/07/13 03:47:11;;;;;;;21.20;14.25;;;;;;;;;;6076337;23;20070;-81
2022/07/13 03:49:38;;;;;;;20.35;14.80;;;;;;;;;;6078134;23;20043;-82
2022/07/13 03:52:05;;;;;;;21.58;15.68;;;;;;;;;;6080877;23;20099;-83
2022/07/13 03:54:32;;;;;;;21.55;14.75;;;;;;;;;;6079312;23;20023;-82
2022/07/13 03:56:59;;;;;;;20.23;13.32;;;;;;;;;;6076264;23;20107;-82
2022/07/13 03:59:26;;;;;;;21.35;14.48;;;;;;;;;;6074370;23;20094;-81
2022/07/13 04:01:54;;;;;;;19.50;13.23;;;;;;;;;;6073889;23;20051;-81
2022/07/13 04:04:21;;;;;;;22.63;14.82;;;;;;;;;;6073490;23;20143;-82
2022/07/13 04:06:48;;;;;;;20.95;13.88;;;;;;;;;;6072680;23;20034;-82
2022/07/13 04:09:15;;;;;;;21.90;13.88;;;;;;;;;;6075914;23;20027;-82
2022/07/13 04:11:42;;;;;;;22.35;14.68;;;;;;;;;;6075901;23;20717;-82
2022/07/13 04:14:09;;;;;;;19.92;14.63;;;;;;;;;;6074697;23;20020;-82
2022/07/13 04:16:36;;;;;;;19.52;14.50;;;;;;;;;;6074385;23;20753;-81
2022/07/13 04:19:04;;;;;;;25.58;14.30;;;;;;;;;;6075119;23;20011;-81
2022/07/13 04:21:31;;;;;;;21.63;14.18;;;;;;;;;;6075707;23;20110;-81
2022/07/13 04:23:58;;;;;;;21.30;13.85;;;;;;;;;;6075949;23;20028;-82
2022/07/13 04:26:25;;;;;;;22.23;13.07;;;;;;;;;;6076373;23;20027;-81
2022/07/13 04:28:52;;;;;;;16.50;12.90;;;;;;;;;;6076203;23;20048;-81
2022/07/13 04:31:19;;;;;;;19.40;12.48;;;;;;;;;;6077672;23;20027;-81
2022/07/13 04:33:47;;;;;;;19.35;13.18;;;;;;;;;;6078515;23;20084;-83
2022/07/13 04:36:14;;;;;;;18.88;12.10;;;;;;;;;;6076898;23;20059;-81
2022/07/13 04:38:41;;;;;;;20.48;13.23;;;;;;;;;;6075965;23;20034;-81
2022/07/13 04:41:11;;;;;;;21.75;12.00;;;;;;;;;;6077194;23;20019;-82
2022/07/13 04:43:38;;;;;;;20.73;13.38;;;;;;;;;;6077262;23;20946;-81
2022/07/13 04:46:05;;;;;;;21.02;12.07;;;;;;;;;;6075972;23;20047;-81
2022/07/13 04:48:32;;;;;;;18.27;11.88;;;;;;;;;;6076196;23;20057;-81
2022/07/13 04:50:59;;;;;;;20.80;12.63;;;;;;;;;;6077430;23;20840;-82
2022/07/13 04:53:26;;;;;;;15.60;11.43;;;;;;;;;;6077325;23;20030;-81
2022/07/13 04:55:53;;;;;;;16.35;11.90;;;;;;;;;;6052336;23;20062;-82
2022/07/13 04:58:25;;;;;;;16.17;10.50;;;;;;;;;;6084315;23;20833;-81
2022/07/13 05:01:00;;;;;;;17.30;11.77;;;;;;;;;;6078883;23;20023;-80
2022/07/13 05:03:47;;;;;;;15.60;11.07;;;;;;;;;;6082082;23;20031;-81
2022/07/13 05:06:14;;;;;;;19.38;10.40;;;;;;;;;;6080704;23;20036;-82
2022/07/13 05:08:41;;;;;;;17.40;11.30;;;;;;;;;;6081379;23;20030;-81
2022/07/13 05:11:10;;;;;;;20.08;11.15;;;;;;;;;;6080502;23;20022;-81
2022/07/13 05:13:37;;;;;;;15.80;9.88;;;;;;;;;;6059458;23;20114;-82
2022/07/13 05:16:05;;;;;;;14.60;10.90;;;;;;;;;;6084118;23;20016;-81
2022/07/13 05:18:32;;;;;;;18.88;10.60;;;;;;;;;;6082957;23;20039;-83
2022/07/13 05:20:59;;;;;;;18.98;10.60;;;;;;;;;;6085912;23;20020;-81
2022/07/13 05:23:27;;;;;;;17.98;9.95;;;;;;;;;;6087777;23;20754;-81
2022/07/13 05:25:54;;;;;;;14.80;9.55;;;;;;;;;;6086884;23;20012;-82
2022/07/13 05:28:21;;;;;;;13.02;9.45;;;;;;;;;;6085261;23;20035;-81
2022/07/13 05:30:48;;;;;;;12.60;9.18;;;;;;;;;;6082677;23;20031;-81
2022/07/13 05:33:18;;;;;;;19.90;9.90;;;;;;;;;;6085891;23;20019;-82
2022/07/13 05:35:45;;;;;;;15.38;9.35;;;;;;;;;;6086976;23;20058;-82
2022/07/13 05:38:13;;;;;;;11.95;8.60;;;;;;;;;;6082718;23;20521;-82
2022/07/13 05:40:40;;;;;;;12.70;8.82;;;;;;;;;;6083088;23;20021;-81
2022/07/13 05:43:12;;;;;;;10.60;7.37;;;;;;;;;;6082385;23;20026;-82
2022/07/13 05:45:39;;;;;;;12.32;8.30;;;;;;;;;;6079639;23;20035;-81
2022/07/13 05:48:06;;;;;;;11.10;7.75;;;;;;;;;;6053398;23;20059;-81
2022/07/13 05:50:38;;;;;;;11.38;7.50;;;;;;;;;;6050828;23;20023;-82
2022/07/13 05:53:05;;;;;;;9.48;7.20;;;;;;;;;;6049759;23;20046;-81
2022/07/13 05:55:32;;;;;;;10.70;7.30;;;;;;;;;;6073973;23;20105;-83
2022/07/13 05:57:59;;;;;;;13.60;6.78;;;;;;;;;;6075150;23;20030;-81
2022/07/13 06:00:27;;;;;;;13.63;6.82;;;;;;;;;;6072549;23;20162;-81
2022/07/13 06:02:54;;;;;;;14.07;6.63;;;;;;;;;;6076606;23;20023;-82
2022/07/13 06:05:24;;;;;;;12.32;7.00;;;;;;;;;;6051093;23;20027;-84
2022/07/13 06:07:51;;;;;;;11.70;6.28;;;;;;;;;;6077326;23;20027;-82
2022/07/13 06:10:18;;;;;;;9.68;6.45;;;;;;;;;;6081320;23;20030;-84
2022/07/13 06:12:45;;;;;;;11.35;6.40;;;;;;;;;;6081088;23;20121;-81
2022/07/13 06:15:12;;;;;;;9.00;6.20;;;;;;;;;;6056463;23;20726;-81
2022/07/13 06:17:39;;;;;;;9.93;5.88;;;;;;;;;;6081937;23;20104;-82
2022/07/13 06:20:07;;;;;;;10.93;6.65;;;;;;;;;;6080880;23;20052;-82
2022/07/13 06:22:37;;;;;;;10.00;6.43;;;;;;;;;;6055831;23;20027;-81
2022/07/13 06:25:04;;;;;;;12.05;5.93;;;;;;;;;;6079666;23;20016;-82
2022/07/13 06:27:31;;;;;;;10.68;6.30;;;;;;;;;;6080545;23;20027;-81
2022/07/13 06:30:05;;;;;;;11.45;6.47;;;;;;;;;;6080553;23;20024;-83
2022/07/13 06:32:32;;;;;;;10.48;6.80;;;;;;;;;;6081692;23;20046;-83
2022/07/13 06:34:59;;;;;;;10.43;5.68;;;;;;;;;;6083719;23;20538;-82
2022/07/13 06:37:30;;;;;;;8.48;5.82;;;;;;;;;;6084171;23;20024;-81
2022/07/13 06:40:13;;;;;;;16.13;6.05;;;;;;;;;;6062235;23;20047;-81
2022/07/13 06:42:42;;;;;;;8.13;6.15;;;;;;;;;;6083155;23;20034;-82
2022/07/13 06:45:09;;;;;;;11.32;6.68;;;;;;;;;;6084801;23;20722;-82
2022/07/13 06:47:37;;;;;;;10.63;6.20;;;;;;;;;;6084508;23;20789;-81
2022/07/13 06:50:09;;;;;;;14.07;6.47;;;;;;;;;;6085632;23;20020;-81
2022/07/13 06:52:40;;;;;;;9.90;6.20;;;;;;;;;;6085113;23;20027;-81
2022/07/13 06:55:08;;;;;;;12.73;6.45;;;;;;;;;;6084521;23;20018;-84
2022/07/13 06:57:37;;;;;;;12.95;7.05;;;;;;;;;;6062032;23;20749;-81
2022/07/13 07:00:09;;;;;;;15.65;6.10;;;;;;;;;;6046931;23;20035;-81
2022/07/13 07:02:39;;;;;;;18.48;6.28;;;;;;;;;;6069798;23;20493;-83
2022/07/13 07:05:09;;;;;;;9.75;5.93;;;;;;;;;;6051527;23;20027;-81
2022/07/13 07:07:39;;;;;;;13.63;5.78;;;;;;;;;;6077431;23;20415;-82
2022/07/13 07:10:07;;;;;;;10.82;5.53;;;;;;;;;;6074128;23;20027;-82
2022/07/13 07:12:41;;;;;;;8.20;5.50;;;;;;;;;;6054125;23;20023;-81
2022/07/13 07:15:17;;;;;;;9.30;5.25;;;;;;;;;;6082177;23;20525;-81
2022/07/13 07:17:53;;;;;;;12.43;5.53;;;;;;;;;;6083292;23;20026;-81
2022/07/13 07:20:20;;;;;;;10.38;5.18;;;;;;;;;;6058357;23;20051;-80
2022/07/13 07:22:55;;;;;;;9.60;5.28;;;;;;;;;;6057644;23;20083;-81
2022/07/13 07:25:26;;;;;;;8.80;5.05;;;;;;;;;;6082836;23;20018;-81
2022/07/13 07:27:54;;;;;;;8.80;4.65;;;;;;;;;;6084426;23;20023;-81
2022/07/13 07:30:24;;;;;;;10.30;5.35;;;;;;;;;;6085884;23;20015;-81
2022/07/13 07:32:51;;;;;;;8.93;4.25;;;;;;;;;;6087121;23;20027;-81
2022/07/13 07:35:19;;;;;;;13.85;4.70;;;;;;;;;;6088560;23;20034;-82
2022/07/13 07:37:47;;;;;;;10.95;4.93;;;;;;;;;;6061812;23;20020;-82
2022/07/13 07:40:14;;;;;;;10.45;5.32;;;;;;;;;;6086370;23;20099;-81
2022/07/13 07:42:41;;;;;;;9.52;5.28;;;;;;;;;;6086510;23;20019;-81
2022/07/13 07:45:10;;;;;;;20.83;10.90;;;;;;;;;;6080026;23;20016;-82
2022/07/13 07:47:40;;;;;;;9.85;5.65;;;;;;;;;;6080956;23;20038;-82
2022/07/13 07:50:11;;;;;;;13.65;5.78;;;;;;;;;;6083206;23;20016;-83
2022/07/13 07:52:41;;;;;;;11.98;5.82;;;;;;;;;;6083170;23;20019;-83
2022/07/13 07:55:24;;;;;;;11.75;5.13;;;;;;;;;;6082444;23;20046;-82
2022/07/13 07:57:52;;;;;;;14.10;7.72;;;;;;;;;;6082710;23;20067;-82
2022/07/13 08:00:19;;;;;;;11.38;5.75;;;;;;;;;;6082657;23;20047;-81
2022/07/13 08:02:47;;;;;;;11.23;5.00;;;;;;;;;;6079811;23;20012;-82
2022/07/13 08:05:15;;;;;;;8.45;4.70;;;;;;;;;;6056865;23;20004;-83
2022/07/13 08:07:43;;;;;;;12.18;5.72;;;;;;;;;;6083631;23;20020;-82
2022/07/13 08:10:12;;;;;;;11.75;6.15;;;;;;;;;;6060863;23;20076;-82
2022/07/13 08:12:56;;;;;;;10.95;5.55;;;;;;;;;;6085946;23;20027;-82
2022/07/13 08:15:28;;;;;;;16.17;5.65;;;;;;;;;;6087953;23;20087;-81
2022/07/13 08:17:58;;;;;;;20.52;8.70;;;;;;;;;;6088118;23;20030;-82
2022/07/13 08:20:25;;;;;;;19.10;10.35;;;;;;;;;;6059506;23;20055;-83
2022/07/13 08:22:54;;;;;;;12.60;7.60;;;;;;;;;;6085786;23;20853;-82
2022/07/13 08:25:23;;;;;;;10.02;4.82;;;;;;;;;;6060270;23;20076;-82
2022/07/13 08:27:51;;;;;;;8.45;4.53;;;;;;;;;;6085403;23;20015;-82
2022/07/13 08:30:21;;;;;;;17.52;8.32;;;;;;;;;;6086764;23;20037;-83
2022/07/13 08:32:48;;;;;;;7.63;4.82;;;;;;;;;;6059504;23;20015;-85
2022/07/13 08:38:34;;;;;;;9.68;3.58;;;;;;;;;;6085779;23;20109;-82
2022/07/13 08:41:07;;;;;;;5.75;3.35;;;;;;;;;;6057968;23;20426;-82
2022/07/13 08:43:39;;;;;;;8.73;3.15;;;;;;;;;;6081231;23;20033;-85
2022/07/13 08:46:08;;;;;;;5.22;3.20;;;;;;;;;;6080409;23;20040;-82
2022/07/13 08:48:38;;;;;;;8.57;3.22;;;;;;;;;;6082228;23;20892;-81
2022/07/13 08:51:06;;;;;;;7.00;3.15;;;;;;;;;;6055499;23;20023;-81
2022/07/13 08:53:36;;;;;;;6.57;3.20;;;;;;;;;;6059468;23;20642;-81
2022/07/13 08:56:03;;;;;;;6.50;2.72;;;;;;;;;;6053882;23;20035;-81
2022/07/13 08:58:36;;;;;;;8.25;2.38;;;;;;;;;;6081334;23;20020;-81
2022/07/13 09:01:12;;;;;;;4.90;2.28;;;;;;;;;;6081601;23;20038;-85
2022/07/13 09:03:44;;;;;;;5.90;2.58;;;;;;;;;;6057903;23;20110;-81
2022/07/13 09:07:02;;;;;;;6.65;2.72;;;;;;;;;;6058400;23;20027;-81
2022/07/13 09:09:36;;;;;;;4.30;2.15;;;;;;;;;;5998939;23;20162;-82
2022/07/13 09:12:24;;;;;;;5.63;2.05;;;;;;;;;;6022981;23;20105;-81
2022/07/13 09:14:52;;;;;;;6.70;2.47;;;;;;;;;;6000664;23;20021;-83
2022/07/13 09:17:31;;;;;;;5.18;2.10;;;;;;;;;;6002112;23;20028;-81
2022/07/13 09:20:01;;;;;;;5.78;2.22;;;;;;;;;;6002089;23;20020;-81
2022/07/13 09:22:31;;;;;;;5.55;2.38;;;;;;;;;;6026222;23;20045;-82
2022/07/13 09:24:58;;;;;;;6.63;2.40;;;;;;;;;;6024077;23;20084;-81
2022/07/13 09:27:46;;;;;;;5.85;2.08;;;;;;;;;;6002654;23;20013;-81
2022/07/13 09:30:23;;;;;;;9.80;2.17;;;;;;;;;;6002132;23;20821;-82
2022/07/13 09:32:53;;;;;;;7.43;2.42;;;;;;;;;;6026656;23;20795;-82
2022/07/13 09:35:44;;;;;;;10.88;2.17;;;;;;;;;;6006602;23;20968;-82
2022/07/13 09:38:31;;;;;;;3.60;1.98;;;;;;;;;;6002877;23;20020;-81
2022/07/13 09:41:15;;;;;;;4.25;2.00;;;;;;;;;;6076262;23;20011;-82
2022/07/13 09:47:09;;;;;;;4.22;2.20;;;;;;;;;;6089813;23;20027;-82
2022/07/13 09:49:46;;;;;;;4.50;1.80;;;;;;;;;;6088522;23;20011;-82
2022/07/13 09:52:17;;;;;;;2.92;1.60;;;;;;;;;;6089843;23;20023;-82
2022/07/13 09:54:48;;;;;;;9.18;1.88;;;;;;;;;;6088911;23;20019;-82
2022/07/13 09:57:22;;;;;;;3.15;1.60;;;;;;;;;;6088032;23;20007;-83
2022/07/13 09:59:49;;;;;;;3.30;1.70;;;;;;;;;;6064502;23;20831;-84
2022/07/13 10:02:23;;;;;;;3.85;1.85;;;;;;;;;;6087679;23;20023;-84
2022/07/13 10:04:51;;;;;;;3.17;1.90;;;;;;;;;;6063509;23;20019;-83
2022/07/13 10:07:19;;;;;;;2.92;1.70;;;;;;;;;;6087927;23;20459;-84
2022/07/13 10:09:46;;;;;;;7.78;1.95;;;;;;;;;;6089668;23;20051;-84
2022/07/13 10:12:14;;;;;;;4.13;1.90;;;;;;;;;;6088470;23;20462;-84
2022/07/13 10:14:41;;;;;;;3.35;1.90;;;;;;;;;;6091152;23;20577;-82
2022/07/13 10:17:12;;;;;;;5.15;1.60;;;;;;;;;;6091327;23;20023;-83
2022/07/13 10:19:44;;;;;;;2.33;1.55;;;;;;;;;;6089377;23;20031;-83
2022/07/13 10:22:19;;;;;;;5.13;1.73;;;;;;;;;;6063917;23;20015;-82
2022/07/13 10:25:02;;;;;;;2.92;1.60;;;;;;;;;;6063275;23;20019;-84
2022/07/13 10:27:36;;;;;;;4.63;1.73;;;;;;;;;;6065572;23;20928;-82
2022/07/13 10:30:19;;;;;;;3.00;1.70;;;;;;;;;;6063438;23;20027;-82
2022/07/13 10:33:13;;;;;;;2.70;1.55;;;;;;;;;;6089487;23;20075;-82
2022/07/13 10:35:58;;;;;;;3.85;1.70;;;;;;;;;;6093140;23;20008;-84
2022/07/13 10:38:40;;;;;;;4.22;1.60;;;;;;;;;;6093970;23;20023;-83
2022/07/13 10:41:23;;;;;;;4.88;1.58;;;;;;;;;;6066169;23;20080;-83
2022/07/13 10:44:05;;;;;;;3.30;1.75;;;;;;;;;;6090823;23;20780;-82
2022/07/13 10:46:56;;;;;;;2.45;1.40;;;;;;;;;;6089333;23;20083;-83
2022/07/13 10:49:51;;;;;;;4.40;1.70;;;;;;;;;;6085135;23;20042;-82
2022/07/13 10:52:21;;;;;;;3.90;1.48;;;;;;;;;;6086875;23;20875;-81
2022/07/13 10:55:13;;;;;;;6.70;2.00;;;;;;;;;;6087773;23;20011;-84
2022/07/13 10:57:44;;;;;;;4.25;1.70;;;;;;;;;;6057978;23;20525;-85
2022/07/13 11:00:28;;;;;;;4.80;1.88;;;;;;;;;;6088259;23;20043;-82
2022/07/13 11:03:05;;;;;;;2.45;1.60;;;;;;;;;;6083689;23;20016;-82
2022/07/13 11:06:03;;;;;;;2.47;1.40;;;;;;;;;;6065181;23;20052;-82
2022/07/13 11:08:31;;;;;;;2.50;1.58;;;;;;;;;;6087013;23;20023;-82
2022/07/13 11:11:20;;;;;;;3.67;1.70;;;;;;;;;;6060349;23;20909;-82
2022/07/13 11:13:49;;;;;;;5.53;1.75;;;;;;;;;;6060595;23;20061;-82
2022/07/13 11:16:37;;;;;;;2.97;1.70;;;;;;;;;;6085415;23;20055;-82
2022/07/13 11:19:08;;;;;;;3.10;1.60;;;;;;;;;;6060842;23;20052;-82
2022/07/13 11:21:55;;;;;;;1.67;1.50;;;;;;;;;;6086918;23;20022;-82
2022/07/13 11:27:12;;;;;;;10.25;1.80;;;;;;;;;;6080600;23;20027;-83
2022/07/13 11:29:54;;;;;;;8.35;2.40;;;;;;;;;;6054778;23;20034;-81
2022/07/13 11:32:29;;;;;;;8.48;1.80;;;;;;;;;;6080544;23;20098;-82
2022/07/13 11:34:56;;;;;;;8.63;1.85;;;;;;;;;;6082684;23;20036;-83
2022/07/13 11:37:28;;;;;;;4.13;1.50;;;;;;;;;;6056617;23;20022;-83
2022/07/13 11:39:55;;;;;;;3.92;1.80;;;;;;;;;;6084306;23;20019;-81
2022/07/13 11:42:23;;;;;;;4.10;1.65;;;;;;;;;;6082224;23;20015;-82
2022/07/13 11:44:52;;;;;;;5.18;1.90;;;;;;;;;;6059151;23;20005;-82
2022/07/13 11:47:22;;;;;;;5.13;1.90;;;;;;;;;;6083205;23;20043;-82
2022/07/13 11:49:54;;;;;;;3.00;1.55;;;;;;;;;;6083415;23;20011;-83
2022/07/13 11:52:29;;;;;;;3.30;1.60;;;;;;;;;;6056642;23;20016;-85
2022/07/13 11:55:19;;;;;;;3.17;1.80;;;;;;;;;;6083585;23;20066;-82
2022/07/13 11:57:47;;;;;;;12.57;2.03;;;;;;;;;;6086130;23;20016;-82
2022/07/13 12:00:15;;;;;;;2.58;1.70;;;;;;;;;;6085005;23;20019;-82
2022/07/13 12:02:51;;;;;;;9.20;1.95;;;;;;;;;;6077690;23;20031;-82
2022/07/13 12:05:25;;;;;;;5.28;1.73;;;;;;;;;;6084174;23;20027;-83
2022/07/13 12:08:08;;;;;;;4.00;1.70;;;;;;;;;;6081188;23;20019;-83
2022/07/13 12:10:36;;;;;;;6.85;1.73;;;;;;;;;;6079151;23;21243;-83
2022/07/13 12:13:06;;;;;;;4.03;1.58;;;;;;;;;;6079652;23;20023;-82
2022/07/13 12:15:36;;;;;;;5.80;1.90;;;;;;;;;;6082055;23;20035;-82
2022/07/13 12:18:09;;;;;;;4.82;1.88;;;;;;;;;;6080101;23;20048;-82
2022/07/13 12:20:38;;;;;;;3.92;1.80;;;;;;;;;;6081671;23;20031;-81
2022/07/13 12:23:08;;;;;;;4.30;1.92;;;;;;;;;;6084616;23;20034;-84
2022/07/13 12:25:36;;;;;;;8.02;2.28;;;;;;;;;;6079899;23;20785;-82
2022/07/13 12:28:05;;;;;;;5.43;2.13;;;;;;;;;;6075883;23;20051;-83
2022/07/13 12:30:33;;;;;;;3.65;2.00;;;;;;;;;;6075684;23;20032;-81
2022/07/13 12:33:05;;;;;;;5.03;1.83;;;;;;;;;;6076113;23;20896;-82
2022/07/13 12:35:39;;;;;;;8.07;1.90;;;;;;;;;;6080169;23;20061;-81
2022/07/13 12:38:12;;;;;;;5.50;1.88;;;;;;;;;;6082084;23;20065;-81
2022/07/13 12:40:39;;;;;;;6.68;2.20;;;;;;;;;;6078886;23;20023;-81
2022/07/13 12:43:30;;;;;;;5.97;2.00;;;;;;;;;;6078180;23;20051;-81
2022/07/13 12:45:57;;;;;;;3.35;1.80;;;;;;;;;;6079223;23;20016;-82
2022/07/13 12:48:25;;;;;;;5.63;2.30;;;;;;;;;;6082890;23;20046;-81
2022/07/13 12:51:00;;;;;;;5.40;2.00;;;;;;;;;;6081709;23;20023;-81
2022/07/13 12:53:47;;;;;;;4.63;1.80;;;;;;;;;;6083985;23;20080;-82
2022/07/13 12:56:15;;;;;;;3.50;2.00;;;;;;;;;;6069413;23;20026;-83
2022/07/13 12:58:44;;;;;;;7.65;2.20;;;;;;;;;;6083775;23;20023;-80
2022/07/13 13:01:27;;;;;;;10.70;1.88;;;;;;;;;;6083899;23;20019;-81
2022/07/13 13:04:00;;;;;;;4.50;1.90;;;;;;;;;;6087127;23;20023;-81
2022/07/13 13:06:32;;;;;;;8.15;1.90;;;;;;;;;;6064986;23;20114;-81
2022/07/13 13:09:08;;;;;;;5.63;1.73;;;;;;;;;;6084441;23;20864;-81
2022/07/13 13:11:35;;;;;;;7.53;1.60;;;;;;;;;;6084578;23;20035;-81
2022/07/13 13:14:05;;;;;;;6.10;1.58;;;;;;;;;;6083388;23;20049;-81
2022/07/13 13:16:33;;;;;;;2.95;1.60;;;;;;;;;;6058442;23;20026;-83
2022/07/13 13:19:00;;;;;;;3.22;1.90;;;;;;;;;;6082793;23;20118;-85
2022/07/13 13:21:28;;;;;;;3.95;1.95;;;;;;;;;;6082764;23;20103;-82
2022/07/13 13:23:55;;;;;;;4.70;1.70;;;;;;;;;;6081695;23;20019;-81
2022/07/13 13:26:25;;;;;;;3.13;1.58;;;;;;;;;;6080424;23;20071;-82
2022/07/13 13:31:57;;;;;;;2.85;1.60;;;;;;;;;;6082498;23;20023;-82
2022/07/13 13:34:27;;;;;;;4.50;1.75;;;;;;;;;;6083951;23;20015;-83
2022/07/13 13:36:54;;;;;;;3.85;1.80;;;;;;;;;;6058636;23;20035;-83
2022/07/13 13:39:21;;;;;;;4.88;1.70;;;;;;;;;;6083536;23;20066;-82
2022/07/13 13:41:48;;;;;;;4.88;1.83;;;;;;;;;;6055521;23;20066;-82
2022/07/13 13:44:16;;;;;;;3.13;1.50;;;;;;;;;;6057082;23;20023;-81
2022/07/13 13:46:44;;;;;;;3.33;1.45;;;;;;;;;;6054361;23;20107;-82
2022/07/13 13:49:11;;;;;;;6.50;1.85;;;;;;;;;;6079908;23;20019;-82
2022/07/13 13:51:39;;;;;;;5.80;1.80;;;;;;;;;;6082091;23;20801;-81
2022/07/13 13:54:24;;;;;;;4.70;1.70;;;;;;;;;;6082763;23;20879;-82
2022/07/13 13:56:51;;;;;;;3.25;1.75;;;;;;;;;;6058185;23;20106;-83
2022/07/13 13:59:19;;;;;;;5.40;1.90;;;;;;;;;;6079359;23;20824;-83
2022/07/13 14:01:46;;;;;;;6.63;1.80;;;;;;;;;;6076185;23;20022;-82
2022/07/13 14:04:19;;;;;;;5.03;1.67;;;;;;;;;;6077612;23;20057;-83
2022/07/13 14:06:46;;;;;;;5.65;1.60;;;;;;;;;;6078291;23;20031;-82
2022/07/13 14:09:15;;;;;;;4.45;1.60;;;;;;;;;;6076900;23;20055;-82
2022/07/13 14:11:42;;;;;;;2.70;1.55;;;;;;;;;;6077365;23;20055;-82
2022/07/13 14:14:12;;;;;;;3.38;1.80;;;;;;;;;;6075859;23;20023;-82
2022/07/13 14:16:42;;;;;;;2.75;1.33;;;;;;;;;;6052398;23;20044;-82
2022/07/13 14:19:09;;;;;;;3.55;1.58;;;;;;;;;;6079769;23;20907;-83
2022/07/13 14:21:40;;;;;;;3.42;1.75;;;;;;;;;;6051305;23;20031;-82
2022/07/13 14:24:07;;;;;;;2.03;1.45;;;;;;;;;;6076942;23;20027;-83
2022/07/13 14:26:45;;;;;;;2.22;1.30;;;;;;;;;;6076078;23;20051;-83
2022/07/13 14:29:25;;;;;;;3.85;1.45;;;;;;;;;;6075396;23;20186;-82
2022/07/13 14:31:55;;;;;;;2.17;1.55;;;;;;;;;;6076687;23;20027;-82
2022/07/13 14:34:43;;;;;;;2.53;1.30;;;;;;;;;;6078008;23;20058;-82
2022/07/13 14:37:10;;;;;;;5.55;1.20;;;;;;;;;;6077666;23;20043;-84
2022/07/13 14:39:37;;;;;;;2.83;1.30;;;;;;;;;;6050361;23;20607;-82
2022/07/13 14:42:04;;;;;;;4.63;1.50;;;;;;;;;;6076225;23;20015;-82
2022/07/13 14:44:32;;;;;;;1.95;1.40;;;;;;;;;;6050778;23;20106;-82
2022/07/13 14:47:00;;;;;;;4.25;1.50;;;;;;;;;;6051896;23;20789;-82
2022/07/13 14:49:27;;;;;;;4.95;1.60;;;;;;;;;;6078211;23;20560;-82
2022/07/13 14:52:15;;;;;;;2.42;1.42;;;;;;;;;;6076360;23;20028;-82
2022/07/13 14:54:45;;;;;;;2.13;1.30;;;;;;;;;;6076866;23;20079;-82
2022/07/13 14:57:12;;;;;;;2.58;1.27;;;;;;;;;;6081072;23;20039;-84
2022/07/13 14:59:39;;;;;;;2.70;1.27;;;;;;;;;;6049753;23;20016;-84
2022/07/13 15:02:07;;;;;;;3.42;1.23;;;;;;;;;;6061153;23;20039;-82